Time;durP1;ratioP1;P1;durP2;ratioP2;P2;SDS_P1;SDS_P2;PMS_P1;PMS_P2;Temp;Humidity;BMP_temperature;BMP_pressure;BME280_temperature;BME280_humidity;BME280_pressure;Samples;Min_cycle;Max_cycle;Signal;HPM_P1;HPM_P2
2023/09/21 00:00:28;;;;;;;4.40;3.38;;;18.40;99.90;;;;;;4976428;28;94115;-33
2023/09/21 00:02:57;;;;;;;3.83;2.88;;;18.40;99.90;;;;;;4975598;28;94813;-35
2023/09/21 00:05:27;;;;;;;3.47;3.10;;;18.30;99.90;;;;;;4976752;28;94781;-33
2023/09/21 00:07:54;;;;;;;4.15;3.17;;;18.30;99.90;;;;;;4975716;28;95515;-33
2023/09/21 00:10:20;;;;;;;3.80;3.05;;;18.30;99.90;;;;;;4976147;28;91414;-38
2023/09/21 00:12:47;;;;;;;4.45;3.33;;;18.30;99.90;;;;;;4975871;28;95015;-34
2023/09/21 00:15:21;;;;;;;6.20;3.00;;;18.30;99.90;;;;;;4975591;28;94521;-33
2023/09/21 00:17:50;;;;;;;7.20;3.28;;;18.20;99.90;;;;;;4975453;28;94328;-33
2023/09/21 00:20:28;;;;;;;6.25;3.83;;;18.20;99.90;;;;;;4975706;28;93198;-32
2023/09/21 00:22:54;;;;;;;3.47;2.80;;;18.20;99.90;;;;;;4975102;28;93546;-31
2023/09/21 00:25:22;;;;;;;4.18;3.25;;;18.20;99.90;;;;;;4975977;28;94720;-33
2023/09/21 00:27:48;;;;;;;4.75;3.40;;;18.20;99.90;;;;;;4963140;28;94749;-32
2023/09/21 00:30:14;;;;;;;4.85;2.90;;;18.20;99.90;;;;;;4975359;28;92854;-35
2023/09/21 00:32:43;;;;;;;7.10;3.13;;;18.10;99.90;;;;;;4975291;28;94076;-33
2023/09/21 00:35:09;;;;;;;3.92;2.92;;;18.10;99.90;;;;;;4961866;28;93640;-32
2023/09/21 00:37:39;;;;;;;7.10;3.33;;;18.10;99.90;;;;;;4975726;28;92571;-34
2023/09/21 00:40:17;;;;;;;3.58;2.58;;;18.20;99.90;;;;;;4974039;28;92807;-31
2023/09/21 00:42:44;;;;;;;3.10;2.85;;;18.20;99.90;;;;;;4964985;28;95083;-32
2023/09/21 00:45:10;;;;;;;3.22;2.65;;;18.20;99.90;;;;;;4975383;28;95519;-32
2023/09/21 00:47:39;;;;;;;3.88;2.97;;;18.10;99.90;;;;;;4975554;28;95232;-31
2023/09/21 00:50:14;;;;;;;4.38;3.30;;;18.10;99.90;;;;;;4975434;28;94038;-32
2023/09/21 00:52:44;;;;;;;3.70;3.38;;;18.10;99.90;;;;;;4975998;28;94952;-32
2023/09/21 00:55:13;;;;;;;2.78;2.58;;;18.10;99.90;;;;;;4973786;28;94267;-34
2023/09/21 00:57:40;;;;;;;4.90;3.63;;;18.10;99.90;;;;;;4975032;28;92167;-33
2023/09/21 01:00:13;;;;;;;3.33;3.03;;;18.00;99.90;;;;;;4975974;28;92052;-32
2023/09/21 01:02:42;;;;;;;4.90;3.30;;;18.00;99.90;;;;;;4975174;28;93441;-32
2023/09/21 01:05:08;;;;;;;5.35;3.05;;;18.00;99.90;;;;;;4975309;28;93824;-33
2023/09/21 01:07:36;;;;;;;3.00;2.80;;;18.00;99.90;;;;;;4975093;28;93833;-34
2023/09/21 01:10:11;;;;;;;3.75;2.88;;;18.00;99.90;;;;;;4967350;28;93999;-36
2023/09/21 01:12:37;;;;;;;3.60;3.30;;;18.00;99.90;;;;;;4978534;28;95357;-33
2023/09/21 01:15:04;;;;;;;5.28;3.50;;;17.90;99.90;;;;;;4978628;28;94200;-35
2023/09/21 01:17:30;;;;;;;5.03;3.22;;;17.90;99.90;;;;;;4979358;28;93054;-35
2023/09/21 01:19:57;;;;;;;3.42;2.83;;;17.90;99.90;;;;;;4978605;28;93627;-33
2023/09/21 01:22:25;;;;;;;7.75;3.38;;;17.90;99.90;;;;;;4978353;28;95206;-33
2023/09/21 01:24:51;;;;;;;6.07;3.70;;;17.90;99.90;;;;;;4969651;28;95166;-36
2023/09/21 01:27:20;;;;;;;6.18;3.42;;;17.80;99.90;;;;;;4974570;28;93610;-32
2023/09/21 01:29:46;;;;;;;4.20;2.75;;;17.80;99.90;;;;;;4979097;28;94175;-32
2023/09/21 01:32:12;;;;;;;3.67;2.92;;;17.90;99.90;;;;;;4976723;28;95735;-36
2023/09/21 01:34:38;;;;;;;3.47;3.17;;;17.80;99.90;;;;;;4978010;28;96469;-34
2023/09/21 01:37:05;;;;;;;4.90;2.90;;;17.70;99.90;;;;;;4976580;28;93519;-33
2023/09/21 01:39:31;;;;;;;4.22;2.90;;;17.80;99.90;;;;;;4977549;28;93483;-32
2023/09/21 01:41:56;;;;;;;3.75;3.42;;;17.70;99.90;;;;;;4976070;28;94732;-36
2023/09/21 01:44:22;;;;;;;7.82;3.63;;;17.70;99.90;;;;;;4978595;28;93151;-34
2023/09/21 01:46:49;;;;;;;4.22;2.83;;;17.70;99.90;;;;;;4978554;28;93912;-34
2023/09/21 01:49:16;;;;;;;7.13;3.40;;;17.80;99.90;;;;;;4976787;28;92435;-32
2023/09/21 01:51:42;;;;;;;4.38;2.92;;;17.70;99.90;;;;;;4977540;28;95546;-34
2023/09/21 01:54:07;;;;;;;3.63;2.63;;;17.70;99.90;;;;;;4977779;28;94543;-31
2023/09/21 01:56:34;;;;;;;3.67;2.67;;;17.60;99.90;;;;;;4978093;28;93950;-34
2023/09/21 01:59:00;;;;;;;3.35;3.03;;;17.60;99.90;;;;;;4978329;28;92278;-32
2023/09/21 02:01:26;;;;;;;2.90;2.60;;;17.60;99.90;;;;;;4977516;28;94815;-35
2023/09/21 02:03:55;;;;;;;3.70;3.40;;;17.60;99.90;;;;;;4978209;28;94432;-35
2023/09/21 02:06:21;;;;;;;3.40;3.03;;;17.60;99.90;;;;;;4977915;28;92685;-34
2023/09/21 02:08:47;;;;;;;4.22;3.35;;;17.60;99.90;;;;;;4978732;28;94206;-33
2023/09/21 02:11:13;;;;;;;3.83;2.53;;;17.60;99.90;;;;;;4977243;28;96507;-33
2023/09/21 02:13:40;;;;;;;3.38;3.03;;;17.60;99.90;;;;;;4978144;28;94147;-32
2023/09/21 02:16:06;;;;;;;3.30;2.78;;;17.60;99.90;;;;;;4977404;28;94205;-36
2023/09/21 02:18:33;;;;;;;4.30;2.80;;;17.60;99.90;;;;;;4977625;28;93506;-36
2023/09/21 02:20:59;;;;;;;3.65;2.97;;;17.60;99.90;;;;;;4975873;28;95581;-33
2023/09/21 02:23:25;;;;;;;2.38;2.17;;;17.60;99.90;;;;;;4977604;28;95458;-32
2023/09/21 02:25:55;;;;;;;2.03;1.88;;;17.60;99.90;;;;;;4977573;28;92333;-34
2023/09/21 02:28:23;;;;;;;2.78;2.55;;;17.60;99.90;;;;;;4977616;28;94443;-32
2023/09/21 02:30:49;;;;;;;3.20;2.80;;;17.70;99.90;;;;;;4962563;28;94966;-34
2023/09/21 02:33:19;;;;;;;5.40;2.78;;;17.70;99.90;;;;;;4976264;28;94668;-33
2023/09/21 02:35:46;;;;;;;2.63;2.42;;;17.70;99.90;;;;;;4976020;28;94666;-34
2023/09/21 02:38:12;;;;;;;3.20;2.97;;;17.70;99.90;;;;;;4977797;28;93824;-33
2023/09/21 02:40:40;;;;;;;4.80;3.05;;;17.70;99.90;;;;;;4976861;28;95274;-35
2023/09/21 02:43:08;;;;;;;4.38;3.28;;;17.70;99.90;;;;;;4976734;28;94216;-33
2023/09/21 02:45:35;;;;;;;;;;;17.70;99.90;;;;;;4977333;28;93402;-35
2023/09/21 02:48:02;;;;;;;3.45;3.15;;;17.70;99.90;;;;;;4978503;28;93588;-32
2023/09/21 02:50:28;;;;;;;2.75;2.53;;;17.70;99.90;;;;;;4963673;28;94927;-33
2023/09/21 02:53:04;;;;;;;3.88;2.63;;;17.70;99.90;;;;;;4977128;28;94140;-31
2023/09/21 02:55:29;;;;;;;2.90;2.70;;;17.70;99.90;;;;;;4977667;28;92736;-31
2023/09/21 02:58:09;;;;;;;3.05;2.80;;;17.80;99.90;;;;;;4976389;28;93387;-30
2023/09/21 03:00:39;;;;;;;3.42;2.55;;;17.70;99.90;;;;;;4977104;28;93376;-33
2023/09/21 03:03:07;;;;;;;3.55;3.25;;;17.80;99.90;;;;;;4975699;28;94341;-34
2023/09/21 03:05:33;;;;;;;4.20;2.95;;;17.80;99.90;;;;;;4976014;28;93894;-32
2023/09/21 03:08:04;;;;;;;4.22;3.10;;;17.70;99.90;;;;;;4974959;28;94562;-33
2023/09/21 03:10:29;;;;;;;3.40;3.10;;;17.70;99.90;;;;;;4976737;28;96283;-31
2023/09/21 03:12:55;;;;;;;3.13;2.42;;;17.70;99.90;;;;;;4975328;28;96604;-34
2023/09/21 03:15:22;;;;;;;3.08;2.67;;;17.70;99.90;;;;;;4977576;28;92169;-31
2023/09/21 03:17:52;;;;;;;4.75;2.75;;;17.70;99.90;;;;;;4976399;28;94077;-35
2023/09/21 03:22:54;;;;;;;4.15;3.13;;;17.70;99.90;;;;;;4976615;28;94652;-33
2023/09/21 03:25:27;;;;;;;3.00;2.70;;;17.70;99.90;;;;;;4976841;28;92883;-33
2023/09/21 03:27:53;;;;;;;4.15;3.08;;;17.70;99.90;;;;;;4965142;28;94134;-33
2023/09/21 03:30:20;;;;;;;3.42;2.95;;;17.70;99.90;;;;;;4974902;28;95986;-32
2023/09/21 03:32:46;;;;;;;3.80;2.80;;;17.70;99.90;;;;;;4968632;28;94149;-32
2023/09/21 03:35:12;;;;;;;3.67;3.30;;;17.70;99.90;;;;;;4970692;28;94362;-33
2023/09/21 03:37:45;;;;;;;3.08;2.78;;;17.60;99.90;;;;;;4976220;28;93097;-33
2023/09/21 03:40:11;;;;;;;4.55;2.85;;;17.60;99.90;;;;;;4976369;28;94950;-31
2023/09/21 03:42:37;;;;;;;2.67;2.47;;;17.60;99.90;;;;;;4976361;28;94112;-36
2023/09/21 03:45:07;;;;;;;5.03;2.50;;;17.60;99.90;;;;;;4976485;28;93146;-32
2023/09/21 03:47:33;;;;;;;4.30;2.80;;;17.60;99.90;;;;;;4976738;28;93290;-34
2023/09/21 03:50:00;;;;;;;3.65;2.95;;;17.50;99.90;;;;;;4974068;28;94800;-35
2023/09/21 03:52:27;;;;;;;3.22;2.85;;;17.50;99.90;;;;;;4976842;28;94529;-33
2023/09/21 03:54:54;;;;;;;2.83;2.35;;;17.50;99.90;;;;;;4975920;28;93384;-33
2023/09/21 03:57:20;;;;;;;8.50;3.15;;;17.50;99.90;;;;;;4976750;28;94918;-31
2023/09/21 03:59:46;;;;;;;2.97;2.60;;;17.50;99.90;;;;;;4975417;28;94548;-34
2023/09/21 04:02:15;;;;;;;4.38;3.22;;;17.50;99.90;;;;;;4975559;28;95694;-34
2023/09/21 04:04:44;;;;;;;2.92;2.60;;;17.50;99.90;;;;;;4976278;28;92963;-32
2023/09/21 04:07:15;;;;;;;2.95;2.75;;;17.50;99.90;;;;;;4976304;28;94245;-33
2023/09/21 04:09:41;;;;;;;3.45;2.83;;;17.50;99.90;;;;;;4975812;28;95448;-32
2023/09/21 04:12:06;;;;;;;3.03;2.72;;;17.50;99.90;;;;;;4974983;28;93095;-32
2023/09/21 04:14:32;;;;;;;3.40;3.10;;;17.50;99.90;;;;;;4976225;28;94113;-32
2023/09/21 04:16:58;;;;;;;3.17;2.80;;;17.40;99.90;;;;;;4976701;28;93123;-36
2023/09/21 04:19:24;;;;;;;5.55;3.75;;;17.40;99.90;;;;;;4974974;28;94173;-32
2023/09/21 04:21:50;;;;;;;3.42;3.03;;;17.40;99.90;;;;;;4976339;28;94819;-32
2023/09/21 04:24:17;;;;;;;5.45;2.85;;;17.30;99.90;;;;;;4970351;28;94074;-32
2023/09/21 04:26:43;;;;;;;2.70;2.22;;;17.30;99.90;;;;;;4968275;28;94181;-33
2023/09/21 04:29:09;;;;;;;4.78;3.15;;;17.30;99.90;;;;;;4974835;28;94380;-32
2023/09/21 04:31:36;;;;;;;5.15;3.30;;;17.30;99.90;;;;;;4976002;28;93724;-33
2023/09/21 04:34:02;;;;;;;4.53;2.60;;;17.30;99.90;;;;;;4975146;28;92214;-35
2023/09/21 04:36:28;;;;;;;3.88;2.97;;;17.30;99.90;;;;;;4976257;28;94010;-34
2023/09/21 04:38:54;;;;;;;3.88;2.67;;;17.30;99.90;;;;;;4974900;28;94625;-32
2023/09/21 04:41:20;;;;;;;5.03;2.80;;;17.30;99.90;;;;;;4976023;28;94392;-32
2023/09/21 04:43:45;;;;;;;3.80;3.45;;;17.30;99.90;;;;;;4977847;28;92666;-32
2023/09/21 04:46:14;;;;;;;3.60;3.08;;;17.40;99.90;;;;;;4978965;28;94286;-34
2023/09/21 04:48:41;;;;;;;4.07;3.25;;;17.30;99.90;;;;;;4978440;28;97506;-32
2023/09/21 04:51:11;;;;;;;3.38;2.97;;;17.30;99.90;;;;;;4979154;28;95061;-36
2023/09/21 04:53:37;;;;;;;3.10;2.85;;;17.30;99.90;;;;;;4966095;28;94276;-32
2023/09/21 04:56:03;;;;;;;2.88;2.63;;;17.30;99.90;;;;;;4966560;28;93586;-36
2023/09/21 04:58:29;;;;;;;6.43;3.03;;;17.30;99.90;;;;;;4968266;28;94718;-33
2023/09/21 05:00:54;;;;;;;3.10;2.80;;;17.30;99.90;;;;;;4977980;28;96234;-34
2023/09/21 05:03:20;;;;;;;3.13;2.80;;;17.20;99.90;;;;;;4993948;28;94600;-34
2023/09/21 05:05:47;;;;;;;4.20;3.33;;;17.20;99.90;;;;;;4979365;28;93395;-32
2023/09/21 05:08:13;;;;;;;3.22;2.83;;;17.20;99.90;;;;;;4978919;28;95113;-32
2023/09/21 05:10:40;;;;;;;3.05;2.75;;;17.20;99.90;;;;;;4978133;28;94724;-32
2023/09/21 05:13:06;;;;;;;3.70;2.75;;;17.20;99.90;;;;;;4978396;28;95506;-34
2023/09/21 05:15:32;;;;;;;3.05;2.67;;;17.20;99.90;;;;;;4978556;28;92877;-33
2023/09/21 05:17:57;;;;;;;4.80;3.72;;;17.20;99.90;;;;;;4964937;28;94594;-31
2023/09/21 05:20:23;;;;;;;6.03;2.92;;;17.20;99.90;;;;;;4978317;28;95330;-31
2023/09/21 05:22:51;;;;;;;4.80;3.20;;;17.10;99.90;;;;;;4965688;28;92959;-32
2023/09/21 05:25:17;;;;;;;3.35;2.75;;;17.10;99.90;;;;;;4978504;28;93108;-31
2023/09/21 05:27:42;;;;;;;3.13;2.92;;;17.20;99.90;;;;;;4978334;28;94783;-35
2023/09/21 05:30:09;;;;;;;4.22;3.78;;;17.10;99.90;;;;;;4978029;28;94211;-36
2023/09/21 05:32:36;;;;;;;2.75;2.55;;;17.10;99.90;;;;;;4977986;28;93540;-34
2023/09/21 05:35:05;;;;;;;4.60;3.13;;;17.20;99.90;;;;;;4998203;22;99968;-34
2023/09/21 05:37:30;;;;;;;3.33;2.45;;;17.20;99.90;;;;;;4912438;28;97275;-33
2023/09/21 05:39:56;;;;;;;6.32;3.00;;;17.20;99.90;;;;;;4938131;28;96158;-32
2023/09/21 05:42:25;;;;;;;4.32;2.60;;;17.20;99.90;;;;;;4937471;28;94458;-35
2023/09/21 05:44:50;;;;;;;4.35;3.33;;;17.20;99.90;;;;;;4936245;28;93307;-33
2023/09/21 05:47:16;;;;;;;6.38;2.80;;;17.30;99.90;;;;;;4937767;28;95049;-33
2023/09/21 05:49:43;;;;;;;3.78;3.22;;;17.30;99.90;;;;;;4937855;28;95007;-32
2023/09/21 05:52:12;;;;;;;2.63;2.43;;;17.30;99.90;;;;;;4938268;28;93380;-36
2023/09/21 05:54:45;;;;;;;4.75;3.42;;;17.30;99.90;;;;;;4936208;28;93479;-32
2023/09/21 05:57:11;;;;;;;3.38;2.47;;;17.40;99.90;;;;;;4919099;28;94549;-35
2023/09/21 05:59:38;;;;;;;4.72;2.95;;;17.40;99.90;;;;;;4919016;28;93056;-35
2023/09/21 06:02:05;;;;;;;3.70;2.50;;;17.50;99.90;;;;;;4927556;28;95855;-33
2023/09/21 06:04:31;;;;;;;4.55;2.55;;;17.60;99.90;;;;;;4937582;28;92534;-37
2023/09/21 06:06:58;;;;;;;2.78;2.58;;;17.60;99.90;;;;;;4937959;28;95535;-33
2023/09/21 06:09:24;;;;;;;4.20;2.87;;;17.70;99.90;;;;;;4936997;28;94737;-32
2023/09/21 06:11:50;;;;;;;3.70;3.17;;;17.70;99.90;;;;;;4928438;28;93675;-34
2023/09/21 06:14:20;;;;;;;3.35;3.05;;;17.80;99.90;;;;;;4915828;28;95462;-33
2023/09/21 06:16:46;;;;;;;3.63;3.33;;;17.90;99.90;;;;;;4926371;28;94354;-32
2023/09/21 06:19:12;;;;;;;4.72;2.10;;;17.90;99.90;;;;;;4931262;28;94168;-33
2023/09/21 06:21:41;;;;;;;3.15;2.70;;;18.00;99.90;;;;;;4934519;28;92735;-35
2023/09/21 06:24:08;;;;;;;3.15;2.88;;;18.10;99.90;;;;;;4917732;28;93154;-32
2023/09/21 06:26:35;;;;;;;5.30;3.13;;;18.20;99.90;;;;;;4915726;28;96233;-35
2023/09/21 06:29:01;;;;;;;4.03;2.22;;;18.30;99.90;;;;;;4933396;28;95349;-35
2023/09/21 06:31:27;;;;;;;4.68;3.10;;;18.30;99.90;;;;;;4919844;28;93916;-32
2023/09/21 06:33:58;;;;;;;2.92;2.60;;;18.30;99.90;;;;;;4915295;28;93499;-36
2023/09/21 06:36:28;;;;;;;4.57;3.03;;;18.40;99.90;;;;;;4935366;28;94993;-36
2023/09/21 06:38:53;;;;;;;5.90;3.55;;;18.50;99.90;;;;;;4933663;28;95769;-34
2023/09/21 06:41:20;;;;;;;3.33;2.85;;;18.60;99.90;;;;;;4934996;28;93657;-33
2023/09/21 06:43:46;;;;;;;4.38;2.95;;;18.60;99.90;;;;;;4936458;28;92331;-34
2023/09/21 06:46:12;;;;;;;2.88;2.60;;;18.70;99.90;;;;;;4926564;28;95806;-33
2023/09/21 06:48:41;;;;;;;4.80;3.72;;;18.80;99.90;;;;;;4930658;28;94380;-35
2023/09/21 06:51:10;;;;;;;2.90;2.60;;;18.80;99.90;;;;;;4922246;28;94023;-32
2023/09/21 06:53:36;;;;;;;2.53;2.25;;;18.80;99.90;;;;;;4928342;28;93033;-33
2023/09/21 06:56:02;;;;;;;4.90;3.13;;;18.90;99.90;;;;;;4914964;28;94360;-36
2023/09/21 06:58:30;;;;;;;2.88;2.40;;;18.80;99.90;;;;;;4934268;28;94892;-32
2023/09/21 07:00:57;;;;;;;5.03;3.50;;;18.90;99.90;;;;;;4922133;28;94001;-32
2023/09/21 07:03:23;;;;;;;6.32;2.63;;;18.80;99.90;;;;;;4919423;28;92977;-36
2023/09/21 07:05:49;;;;;;;3.88;2.83;;;18.90;99.90;;;;;;4915577;28;95225;-32
2023/09/21 07:08:16;;;;;;;4.93;2.53;;;18.90;99.90;;;;;;4916614;28;94366;-34
2023/09/21 07:10:43;;;;;;;4.20;2.83;;;19.00;99.90;;;;;;4914988;28;93707;-34
2023/09/21 07:13:12;;;;;;;2.90;2.50;;;19.00;99.90;;;;;;4915820;28;93680;-33
2023/09/21 07:15:41;;;;;;;2.50;2.30;;;19.10;99.90;;;;;;4927793;28;95206;-33
2023/09/21 07:18:09;;;;;;;4.85;2.90;;;19.10;99.90;;;;;;4923210;28;95937;-34
2023/09/21 07:20:34;;;;;;;3.22;2.30;;;19.20;99.90;;;;;;4934255;28;92427;-34
2023/09/21 07:23:01;;;;;;;5.30;2.63;;;19.20;99.90;;;;;;4926818;28;93081;-32
2023/09/21 07:25:30;;;;;;;4.60;3.30;;;19.20;99.90;;;;;;4927408;28;95017;-35
2023/09/21 07:27:56;;;;;;;8.82;2.50;;;19.30;99.90;;;;;;4934796;28;94611;-32
2023/09/21 07:30:31;;;;;;;4.35;2.78;;;19.40;99.90;;;;;;4934631;28;92408;-34
2023/09/21 07:32:57;;;;;;;3.60;2.53;;;19.40;99.90;;;;;;4934524;28;92929;-34
2023/09/21 07:35:22;;;;;;;3.90;2.70;;;19.40;99.90;;;;;;4933915;28;94494;-33
2023/09/21 07:37:49;;;;;;;25.15;7.45;;;19.40;99.90;;;;;;4930172;28;94599;-34
2023/09/21 07:40:21;;;;;;;5.85;3.22;;;19.40;99.90;;;;;;4925510;28;94164;-35
2023/09/21 07:42:48;;;;;;;4.85;3.35;;;19.40;99.90;;;;;;4929214;28;92649;-35
2023/09/21 07:45:15;;;;;;;3.30;2.83;;;19.40;99.90;;;;;;4925840;28;96243;-36
2023/09/21 07:47:42;;;;;;;5.35;3.17;;;19.40;99.90;;;;;;4928133;28;93953;-31
2023/09/21 07:50:08;;;;;;;4.28;2.95;;;19.40;99.90;;;;;;4926497;28;92104;-34
2023/09/21 07:52:35;;;;;;;4.75;3.47;;;19.40;99.90;;;;;;4928928;28;93121;-34
2023/09/21 07:55:05;;;;;;;3.30;2.88;;;19.50;99.90;;;;;;4914758;28;94761;-34
2023/09/21 07:57:37;;;;;;;3.65;2.75;;;19.50;99.90;;;;;;4920824;28;94686;-31
2023/09/21 08:00:05;;;;;;;3.70;2.78;;;19.60;99.90;;;;;;4921868;28;93174;-33
2023/09/21 08:02:31;;;;;;;3.57;3.27;;;19.60;99.90;;;;;;4902312;28;93436;-36
2023/09/21 08:04:57;;;;;;;3.92;3.00;;;19.70;99.90;;;;;;4914660;28;95580;-36
2023/09/21 08:07:25;;;;;;;2.95;2.70;;;19.80;99.90;;;;;;4915155;28;94136;-33
2023/09/21 08:09:54;;;;;;;3.72;2.80;;;19.80;99.90;;;;;;4915369;28;93047;-33
2023/09/21 08:12:20;;;;;;;4.05;3.38;;;19.90;99.90;;;;;;4915663;28;94771;-32
2023/09/21 08:14:46;;;;;;;7.22;3.75;;;19.90;99.90;;;;;;4915046;28;94673;-34
2023/09/21 08:17:12;;;;;;;4.05;2.63;;;20.00;99.90;;;;;;4914662;28;94153;-33
2023/09/21 08:19:38;;;;;;;4.85;3.90;;;19.90;99.90;;;;;;4918680;28;94622;-36
2023/09/21 08:22:03;;;;;;;4.35;3.08;;;19.90;99.90;;;;;;4919069;28;91853;-35
2023/09/21 08:24:29;;;;;;;3.25;3.00;;;19.90;99.90;;;;;;4917629;28;95042;-36
2023/09/21 08:26:55;;;;;;;8.30;2.65;;;19.90;99.90;;;;;;4918240;28;94482;-34
2023/09/21 08:29:21;;;;;;;5.60;2.88;;;19.90;99.90;;;;;;4918143;28;93701;-35
2023/09/21 08:31:47;;;;;;;2.85;2.55;;;19.90;99.90;;;;;;4917357;28;92562;-34
2023/09/21 08:34:13;;;;;;;6.70;3.58;;;19.90;99.90;;;;;;4923335;28;93308;-32
2023/09/21 08:36:40;;;;;;;3.97;2.78;;;20.00;99.90;;;;;;4925157;28;95316;-35
2023/09/21 08:39:06;;;;;;;8.27;3.63;;;20.00;99.90;;;;;;4917835;28;92712;-36
2023/09/21 08:41:35;;;;;;;3.70;3.00;;;19.90;99.90;;;;;;4918425;28;93103;-32
2023/09/21 08:44:03;;;;;;;6.20;3.63;;;20.00;99.90;;;;;;4924384;28;94519;-33
2023/09/21 08:46:28;;;;;;;2.90;2.67;;;20.00;99.90;;;;;;4936132;28;94857;-32
2023/09/21 08:48:59;;;;;;;4.18;3.08;;;20.00;99.90;;;;;;4918477;28;94683;-36
2023/09/21 08:51:25;;;;;;;4.72;2.78;;;20.00;99.90;;;;;;4917132;28;93218;-32
2023/09/21 08:53:53;;;;;;;3.95;2.85;;;20.00;99.90;;;;;;4915978;28;96584;-35
2023/09/21 08:56:20;;;;;;;;;;;20.00;99.90;;;;;;4918259;28;95248;-34
2023/09/21 08:58:50;;;;;;;4.10;3.40;;;20.00;99.90;;;;;;4919661;28;93216;-34
2023/09/21 09:01:17;;;;;;;3.47;2.58;;;20.00;99.90;;;;;;4915407;28;94250;-34
2023/09/21 09:03:43;;;;;;;2.70;2.50;;;20.00;99.90;;;;;;4918328;28;95868;-31
2023/09/21 09:06:09;;;;;;;3.15;2.88;;;20.00;99.90;;;;;;4917650;28;95079;-35
2023/09/21 09:08:35;;;;;;;3.42;3.03;;;20.00;99.90;;;;;;4917776;28;92714;-35
2023/09/21 09:11:01;;;;;;;4.53;2.90;;;20.00;99.90;;;;;;4932090;28;93404;-34
2023/09/21 09:13:33;;;;;;;4.40;2.65;;;19.90;99.90;;;;;;4928414;28;95023;-34
2023/09/21 09:16:03;;;;;;;6.93;3.42;;;19.80;99.90;;;;;;4916173;28;94634;-31
2023/09/21 09:18:31;;;;;;;4.03;3.22;;;19.80;99.90;;;;;;4928103;28;94835;-31
2023/09/21 09:20:57;;;;;;;4.68;3.25;;;19.70;99.90;;;;;;4919391;28;93163;-35
2023/09/21 09:23:23;;;;;;;5.65;3.15;;;19.70;99.90;;;;;;4916252;28;95235;-31
2023/09/21 09:25:51;;;;;;;4.15;3.45;;;19.70;99.90;;;;;;4916324;28;94683;-31
2023/09/21 09:28:16;;;;;;;4.10;3.30;;;19.70;99.90;;;;;;4917046;28;93360;-32
2023/09/21 09:30:45;;;;;;;5.68;3.50;;;19.60;99.90;;;;;;4923771;28;93770;-36
2023/09/21 09:33:12;;;;;;;;;;;19.50;99.90;;;;;;4922861;28;94540;-34
2023/09/21 09:35:41;;;;;;;4.13;3.08;;;19.40;99.90;;;;;;4919123;28;94119;-34
2023/09/21 09:38:11;;;;;;;3.55;3.15;;;19.40;99.90;;;;;;4917357;28;94447;-35
2023/09/21 09:40:37;;;;;;;4.38;3.38;;;19.30;99.90;;;;;;4917068;28;94799;-33
2023/09/21 09:43:05;;;;;;;3.88;3.58;;;19.30;99.90;;;;;;4916675;28;95591;-34
2023/09/21 09:45:31;;;;;;;3.50;3.20;;;19.20;99.90;;;;;;4916354;28;95337;-34
2023/09/21 09:48:01;;;;;;;3.97;2.63;;;19.20;99.90;;;;;;4914942;28;93314;-33
2023/09/21 09:50:33;;;;;;;4.00;3.10;;;19.10;99.90;;;;;;4916887;28;93570;-33
2023/09/21 09:53:10;;;;;;;5.72;3.30;;;19.10;99.90;;;;;;4915709;28;94351;-34
2023/09/21 09:55:38;;;;;;;4.65;3.72;;;19.10;99.90;;;;;;4923352;28;93937;-34
2023/09/21 09:58:06;;;;;;;3.33;3.05;;;19.00;99.90;;;;;;4922899;28;92242;-36
2023/09/21 10:00:31;;;;;;;8.57;3.20;;;19.00;99.90;;;;;;4904033;28;93069;-33
2023/09/21 10:02:58;;;;;;;4.90;3.45;;;19.00;99.90;;;;;;4917260;28;94753;-34
2023/09/21 10:05:27;;;;;;;4.45;3.75;;;18.90;99.90;;;;;;4904502;28;94305;-32
2023/09/21 10:08:01;;;;;;;3.33;3.00;;;18.90;99.90;;;;;;4915877;28;95237;-34
2023/09/21 10:10:30;;;;;;;3.67;3.35;;;18.80;99.90;;;;;;4916954;28;94158;-34
2023/09/21 10:12:57;;;;;;;5.40;4.10;;;18.90;99.90;;;;;;4915360;28;94379;-33
2023/09/21 10:15:24;;;;;;;6.55;4.13;;;18.90;99.90;;;;;;4916071;28;94957;-32
2023/09/21 10:17:54;;;;;;;4.72;3.80;;;18.80;99.90;;;;;;4917477;28;92807;-35
2023/09/21 10:20:27;;;;;;;5.53;3.45;;;18.70;99.90;;;;;;4916921;28;94840;-34
2023/09/21 10:22:58;;;;;;;4.53;4.13;;;18.70;99.90;;;;;;4916229;28;94479;-32
2023/09/21 10:25:41;;;;;;;6.57;4.65;;;18.60;99.90;;;;;;4916752;28;93260;-35
2023/09/21 10:28:34;;;;;;;4.28;3.88;;;18.60;99.90;;;;;;4916920;28;93777;-33
2023/09/21 10:31:06;;;;;;;4.10;3.38;;;18.60;99.90;;;;;;4914854;28;93832;-35
2023/09/21 10:33:52;;;;;;;4.80;4.30;;;18.60;99.90;;;;;;4915529;28;94142;-32
2023/09/21 10:36:28;;;;;;;4.57;3.60;;;18.50;99.90;;;;;;4908895;28;95409;-34
2023/09/21 10:39:06;;;;;;;5.90;3.97;;;18.50;99.90;;;;;;4916556;28;93582;-34
2023/09/21 10:41:33;;;;;;;4.60;4.20;;;18.40;99.90;;;;;;4915710;28;93644;-33
2023/09/21 10:44:02;;;;;;;4.95;4.20;;;18.30;99.90;;;;;;4903972;28;94862;-34
2023/09/21 10:46:31;;;;;;;9.07;5.13;;;18.20;99.90;;;;;;4915309;28;93286;-33
2023/09/21 10:49:11;;;;;;;4.75;4.25;;;18.10;99.90;;;;;;4916395;28;93521;-33
2023/09/21 10:51:40;;;;;;;6.38;4.78;;;18.10;99.90;;;;;;4916467;28;92417;-33
2023/09/21 10:54:10;;;;;;;5.65;4.65;;;18.10;99.90;;;;;;4933024;28;93331;-35
2023/09/21 10:56:41;;;;;;;5.57;4.93;;;18.20;99.90;;;;;;4922777;28;94925;-36
2023/09/21 10:59:07;;;;;;;7.82;4.97;;;18.20;99.90;;;;;;4933504;28;94845;-33
2023/09/21 11:01:35;;;;;;;6.55;4.97;;;18.10;99.90;;;;;;4921615;28;92759;-34
2023/09/21 11:04:02;;;;;;;7.85;6.05;;;18.20;99.90;;;;;;4908342;28;94347;-33
2023/09/21 11:06:28;;;;;;;5.72;5.22;;;18.20;99.90;;;;;;4934850;28;95125;-35
2023/09/21 11:08:55;;;;;;;6.10;5.43;;;18.20;99.90;;;;;;4934353;28;93873;-34
2023/09/21 11:11:22;;;;;;;5.27;4.77;;;18.30;99.90;;;;;;4921419;28;93150;-36
2023/09/21 11:13:51;;;;;;;5.50;4.95;;;18.20;99.90;;;;;;4915974;28;95542;-33
2023/09/21 11:16:18;;;;;;;5.72;5.13;;;18.20;99.90;;;;;;4916379;28;94647;-32
2023/09/21 11:18:44;;;;;;;6.47;5.50;;;18.10;99.90;;;;;;4935773;28;93409;-33
2023/09/21 11:21:11;;;;;;;6.80;5.65;;;18.00;99.90;;;;;;4933156;28;93404;-34
2023/09/21 11:23:42;;;;;;;5.50;4.72;;;18.10;99.90;;;;;;4914741;28;94633;-36
2023/09/21 11:26:11;;;;;;;7.15;5.85;;;18.00;99.90;;;;;;4922051;28;94254;-33
2023/09/21 11:28:40;;;;;;;7.28;5.07;;;18.00;99.90;;;;;;4933909;28;93293;-35
2023/09/21 11:31:08;;;;;;;6.68;5.25;;;18.10;99.90;;;;;;4927067;28;94970;-34
2023/09/21 11:33:37;;;;;;;6.60;4.73;;;18.00;99.90;;;;;;4915916;28;95049;-32
2023/09/21 11:36:06;;;;;;;5.85;4.38;;;17.90;99.90;;;;;;4934563;28;94541;-33
2023/09/21 11:38:34;;;;;;;4.90;4.40;;;17.90;99.90;;;;;;4933971;28;93046;-31
2023/09/21 11:41:00;;;;;;;4.55;4.15;;;17.90;99.90;;;;;;4935329;28;93454;-34
2023/09/21 11:43:25;;;;;;;3.42;3.13;;;18.00;99.90;;;;;;4933387;28;94793;-31
2023/09/21 11:45:52;;;;;;;5.18;3.40;;;17.90;99.90;;;;;;4933744;28;94289;-35
2023/09/21 11:48:21;;;;;;;3.33;3.03;;;17.90;99.90;;;;;;4930402;28;93610;-36
2023/09/21 11:50:48;;;;;;;2.65;2.45;;;17.90;99.90;;;;;;4934893;28;94141;-33
2023/09/21 11:53:14;;;;;;;3.53;2.65;;;17.90;99.90;;;;;;4932080;28;95141;-31
2023/09/21 11:55:43;;;;;;;2.78;1.98;;;17.90;99.90;;;;;;4934483;28;94289;-33
2023/09/21 11:58:14;;;;;;;1.90;1.75;;;17.90;99.90;;;;;;4933919;28;93313;-35
2023/09/21 12:00:43;;;;;;;1.90;1.70;;;18.00;99.90;;;;;;4934078;28;93745;-34
2023/09/21 12:03:23;;;;;;;1.70;1.52;;;18.10;99.90;;;;;;4932537;28;94727;-32
2023/09/21 12:05:49;;;;;;;1.70;1.60;;;18.10;99.90;;;;;;4934037;28;94811;-36
2023/09/21 12:08:16;;;;;;;1.77;1.67;;;18.20;99.90;;;;;;4934158;28;93558;-34
2023/09/21 12:10:46;;;;;;;2.53;2.33;;;18.30;99.90;;;;;;4932635;28;94378;-33
2023/09/21 12:13:13;;;;;;;1.98;1.77;;;18.50;99.90;;;;;;4929014;28;95148;-36
2023/09/21 12:15:40;;;;;;;2.47;1.95;;;18.60;99.90;;;;;;4924412;28;95206;-34
2023/09/21 12:18:07;;;;;;;2.10;1.77;;;18.70;99.90;;;;;;4915884;28;92167;-32
2023/09/21 12:20:33;;;;;;;2.58;1.92;;;18.60;99.90;;;;;;4915335;28;93886;-36
2023/09/21 12:22:58;;;;;;;2.25;2.05;;;18.60;99.90;;;;;;4914251;28;95647;-34
2023/09/21 12:25:24;;;;;;;2.30;2.17;;;18.60;99.90;;;;;;4914577;28;95250;-35
2023/09/21 12:27:50;;;;;;;5.47;2.55;;;18.70;99.90;;;;;;4932411;28;94672;-33
2023/09/21 12:30:17;;;;;;;4.75;2.33;;;18.70;99.90;;;;;;4919521;28;93124;-33
2023/09/21 12:32:43;;;;;;;2.33;2.13;;;18.70;99.90;;;;;;4930332;28;94506;-35
2023/09/21 12:35:10;;;;;;;2.08;1.75;;;18.70;99.90;;;;;;4923523;28;94791;-32
2023/09/21 12:37:37;;;;;;;2.58;1.98;;;18.60;99.90;;;;;;4929263;28;94061;-34
2023/09/21 12:40:11;;;;;;;3.17;2.15;;;18.50;99.90;;;;;;4932119;28;94113;-34
2023/09/21 12:42:42;;;;;;;5.15;2.90;;;18.40;99.90;;;;;;4933342;28;93605;-33
2023/09/21 12:45:16;;;;;;;2.03;1.90;;;18.30;99.90;;;;;;4931926;28;93853;-35
2023/09/21 12:47:46;;;;;;;1.90;1.80;;;18.40;99.90;;;;;;4920889;28;95084;-33
2023/09/21 12:50:13;;;;;;;2.25;2.00;;;18.30;99.90;;;;;;4919039;28;93678;-35
2023/09/21 12:52:40;;;;;;;2.17;1.97;;;18.30;99.90;;;;;;4927859;28;94937;-32